sensor_id;sensor_type;location;lat;lon;timestamp;temperature;humidity
71039;SHT30;58692;43.212;27.908;2022-10-29T00:01:46;12.80;82.09
71039;SHT30;58692;43.212;27.908;2022-10-29T00:04:12;12.79;82.15
71039;SHT30;58692;43.212;27.908;2022-10-29T00:06:37;12.70;82.52
71039;SHT30;58692;43.212;27.908;2022-10-29T00:09:03;12.64;82.49
71039;SHT30;58692;43.212;27.908;2022-10-29T00:11:29;12.70;82.37
71039;SHT30;58692;43.212;27.908;2022-10-29T00:13:58;12.61;82.64
71039;SHT30;58692;43.212;27.908;2022-10-29T00:16:26;12.59;82.66
71039;SHT30;58692;43.212;27.908;2022-10-29T00:18:53;12.43;83.13
71039;SHT30;58692;43.212;27.908;2022-10-29T00:21:21;12.37;83.20
71039;SHT30;58692;43.212;27.908;2022-10-29T00:23:47;12.44;83.14
71039;SHT30;58692;43.212;27.908;2022-10-29T00:26:15;12.39;83.16
71039;SHT30;58692;43.212;27.908;2022-10-29T00:28:41;12.34;83.16
71039;SHT30;58692;43.212;27.908;2022-10-29T00:31:09;12.23;83.54
71039;SHT30;58692;43.212;27.908;2022-10-29T00:33:35;12.16;83.78
71039;SHT30;58692;43.212;27.908;2022-10-29T00:36:05;12.20;83.57
71039;SHT30;58692;43.212;27.908;2022-10-29T00:38:32;12.19;83.64
71039;SHT30;58692;43.212;27.908;2022-10-29T00:40:59;12.15;83.80
71039;SHT30;58692;43.212;27.908;2022-10-29T00:43:25;12.16;83.87
71039;SHT30;58692;43.212;27.908;2022-10-29T00:45:56;12.10;83.93
71039;SHT30;58692;43.212;27.908;2022-10-29T00:48:24;11.95;84.45
71039;SHT30;58692;43.212;27.908;2022-10-29T00:50:51;11.96;84.64
71039;SHT30;58692;43.212;27.908;2022-10-29T00:53:21;11.72;85.40
71039;SHT30;58692;43.212;27.908;2022-10-29T00:55:48;11.72;85.51
71039;SHT30;58692;43.212;27.908;2022-10-29T00:58:14;11.75;85.51
71039;SHT30;58692;43.212;27.908;2022-10-29T01:00:39;11.88;84.96
71039;SHT30;58692;43.212;27.908;2022-10-29T01:03:05;11.90;84.72
71039;SHT30;58692;43.212;27.908;2022-10-29T01:05:32;11.82;84.77
71039;SHT30;58692;43.212;27.908;2022-10-29T01:07:59;11.89;84.51
71039;SHT30;58692;43.212;27.908;2022-10-29T01:10:47;11.81;84.73
71039;SHT30;58692;43.212;27.908;2022-10-29T01:13:36;11.89;84.51
71039;SHT30;58692;43.212;27.908;2022-10-29T01:21:37;11.88;84.65
71039;SHT30;58692;43.212;27.908;2022-10-29T01:32:29;11.69;85.12
71039;SHT30;58692;43.212;27.908;2022-10-29T01:35:10;11.69;84.92
71039;SHT30;58692;43.212;27.908;2022-10-29T01:43:23;11.71;84.49
71039;SHT30;58692;43.212;27.908;2022-10-29T01:45:57;11.68;84.64
71039;SHT30;58692;43.212;27.908;2022-10-29T01:48:31;11.65;84.87
71039;SHT30;58692;43.212;27.908;2022-10-29T01:51:02;11.65;84.64
71039;SHT30;58692;43.212;27.908;2022-10-29T01:53:30;11.65;84.62
71039;SHT30;58692;43.212;27.908;2022-10-29T01:55:58;11.54;84.79
71039;SHT30;58692;43.212;27.908;2022-10-29T01:58:24;11.55;84.96
71039;SHT30;58692;43.212;27.908;2022-10-29T02:03:38;11.65;84.28
71039;SHT30;58692;43.212;27.908;2022-10-29T02:06:22;11.55;84.31
71039;SHT30;58692;43.212;27.908;2022-10-29T02:11:37;11.62;84.14
71039;SHT30;58692;43.212;27.908;2022-10-29T02:14:22;11.64;84.21
71039;SHT30;58692;43.212;27.908;2022-10-29T02:16:50;11.61;84.55
71039;SHT30;58692;43.212;27.908;2022-10-29T02:19:16;11.57;84.69
71039;SHT30;58692;43.212;27.908;2022-10-29T02:21:41;11.41;85.24
71039;SHT30;58692;43.212;27.908;2022-10-29T02:24:08;11.41;85.50
71039;SHT30;58692;43.212;27.908;2022-10-29T02:26:34;11.34;85.80
71039;SHT30;58692;43.212;27.908;2022-10-29T02:28:59;11.34;85.77
71039;SHT30;58692;43.212;27.908;2022-10-29T02:31:26;11.17;86.34
71039;SHT30;58692;43.212;27.908;2022-10-29T02:33:52;11.13;86.79
71039;SHT30;58692;43.212;27.908;2022-10-29T02:36:17;11.07;87.10
71039;SHT30;58692;43.212;27.908;2022-10-29T02:38:43;11.23;86.44
71039;SHT30;58692;43.212;27.908;2022-10-29T02:41:08;11.23;86.05
71039;SHT30;58692;43.212;27.908;2022-10-29T02:43:34;11.24;85.91
71039;SHT30;58692;43.212;27.908;2022-10-29T02:48:40;10.96;86.56
71039;SHT30;58692;43.212;27.908;2022-10-29T02:51:06;10.97;86.74
71039;SHT30;58692;43.212;27.908;2022-10-29T02:53:31;11.00;86.59
71039;SHT30;58692;43.212;27.908;2022-10-29T02:55:58;11.04;86.52
71039;SHT30;58692;43.212;27.908;2022-10-29T02:58:24;10.83;87.57
71039;SHT30;58692;43.212;27.908;2022-10-29T03:00:50;10.93;87.50
71039;SHT30;58692;43.212;27.908;2022-10-29T03:03:16;10.81;88.09
71039;SHT30;58692;43.212;27.908;2022-10-29T03:05:41;10.83;87.87
71039;SHT30;58692;43.212;27.908;2022-10-29T03:08:07;10.89;87.59
71039;SHT30;58692;43.212;27.908;2022-10-29T03:10:32;10.93;87.41
71039;SHT30;58692;43.212;27.908;2022-10-29T03:12:58;10.93;87.09
71039;SHT30;58692;43.212;27.908;2022-10-29T03:15:24;10.83;87.04
71039;SHT30;58692;43.212;27.908;2022-10-29T03:17:50;10.83;86.94
71039;SHT30;58692;43.212;27.908;2022-10-29T03:20:15;10.72;87.13
71039;SHT30;58692;43.212;27.908;2022-10-29T03:22:41;10.80;86.80
71039;SHT30;58692;43.212;27.908;2022-10-29T03:25:06;10.59;87.52
71039;SHT30;58692;43.212;27.908;2022-10-29T03:27:39;10.69;87.33
71039;SHT30;58692;43.212;27.908;2022-10-29T03:30:07;10.69;87.17
71039;SHT30;58692;43.212;27.908;2022-10-29T03:32:33;10.77;86.86
71039;SHT30;58692;43.212;27.908;2022-10-29T03:34:58;10.80;87.10
71039;SHT30;58692;43.212;27.908;2022-10-29T03:37:24;10.77;87.37
71039;SHT30;58692;43.212;27.908;2022-10-29T03:39:49;10.81;87.49
71039;SHT30;58692;43.212;27.908;2022-10-29T03:42:15;10.81;87.38
71039;SHT30;58692;43.212;27.908;2022-10-29T03:44:40;10.67;87.94
71039;SHT30;58692;43.212;27.908;2022-10-29T03:47:07;10.63;88.28
71039;SHT30;58692;43.212;27.908;2022-10-29T03:49:33;10.31;89.45
71039;SHT30;58692;43.212;27.908;2022-10-29T03:51:58;10.19;89.62
71039;SHT30;58692;43.212;27.908;2022-10-29T03:54:24;10.25;89.37
71039;SHT30;58692;43.212;27.908;2022-10-29T03:56:49;10.29;89.27
71039;SHT30;58692;43.212;27.908;2022-10-29T03:59:15;10.29;89.10
71039;SHT30;58692;43.212;27.908;2022-10-29T04:01:40;10.11;89.40
71039;SHT30;58692;43.212;27.908;2022-10-29T04:04:06;10.08;89.57
71039;SHT30;58692;43.212;27.908;2022-10-29T04:06:31;10.16;89.49
71039;SHT30;58692;43.212;27.908;2022-10-29T04:08:57;10.16;89.50
71039;SHT30;58692;43.212;27.908;2022-10-29T04:11:22;9.97;89.33
71039;SHT30;58692;43.212;27.908;2022-10-29T04:13:51;10.06;89.29
71039;SHT30;58692;43.212;27.908;2022-10-29T04:16:17;10.05;89.45
71039;SHT30;58692;43.212;27.908;2022-10-29T04:18:42;10.09;89.53
71039;SHT30;58692;43.212;27.908;2022-10-29T04:21:10;10.12;89.19
71039;SHT30;58692;43.212;27.908;2022-10-29T04:23:35;10.05;89.56
71039;SHT30;58692;43.212;27.908;2022-10-29T04:26:01;9.95;89.82
71039;SHT30;58692;43.212;27.908;2022-10-29T04:28:27;9.98;90.07
71039;SHT30;58692;43.212;27.908;2022-10-29T04:30:52;10.06;90.22
71039;SHT30;58692;43.212;27.908;2022-10-29T04:33:18;10.01;90.21
71039;SHT30;58692;43.212;27.908;2022-10-29T04:35:50;9.85;90.20
71039;SHT30;58692;43.212;27.908;2022-10-29T04:38:15;9.73;90.34
71039;SHT30;58692;43.212;27.908;2022-10-29T04:40:41;9.70;90.81
71039;SHT30;58692;43.212;27.908;2022-10-29T04:43:06;9.74;90.98
71039;SHT30;58692;43.212;27.908;2022-10-29T04:45:32;9.65;90.45
71039;SHT30;58692;43.212;27.908;2022-10-29T04:47:59;9.64;90.84
71039;SHT30;58692;43.212;27.908;2022-10-29T04:50:25;9.71;90.84
71039;SHT30;58692;43.212;27.908;2022-10-29T04:52:51;9.84;90.58
71039;SHT30;58692;43.212;27.908;2022-10-29T04:55:16;9.84;90.13
71039;SHT30;58692;43.212;27.908;2022-10-29T04:57:42;9.92;90.15
71039;SHT30;58692;43.212;27.908;2022-10-29T05:00:08;9.91;90.28
71039;SHT30;58692;43.212;27.908;2022-10-29T05:02:34;9.92;90.37
71039;SHT30;58692;43.212;27.908;2022-10-29T05:05:00;9.94;90.53
71039;SHT30;58692;43.212;27.908;2022-10-29T05:07:25;9.99;90.45
71039;SHT30;58692;43.212;27.908;2022-10-29T05:09:51;9.97;90.83
71039;SHT30;58692;43.212;27.908;2022-10-29T05:12:16;10.06;90.50
71039;SHT30;58692;43.212;27.908;2022-10-29T05:14:42;10.06;90.45
71039;SHT30;58692;43.212;27.908;2022-10-29T05:17:07;10.09;90.38
71039;SHT30;58692;43.212;27.908;2022-10-29T05:19:33;10.21;90.16
71039;SHT30;58692;43.212;27.908;2022-10-29T05:21:58;10.23;90.24
71039;SHT30;58692;43.212;27.908;2022-10-29T05:24:24;10.32;90.04
71039;SHT30;58692;43.212;27.908;2022-10-29T05:26:49;10.38;90.10
71039;SHT30;58692;43.212;27.908;2022-10-29T05:29:15;10.38;89.81
71039;SHT30;58692;43.212;27.908;2022-10-29T05:31:40;10.32;90.23
71039;SHT30;58692;43.212;27.908;2022-10-29T05:34:05;10.33;90.30
71039;SHT30;58692;43.212;27.908;2022-10-29T05:36:31;10.33;90.40
71039;SHT30;58692;43.212;27.908;2022-10-29T05:38:57;10.42;90.30
71039;SHT30;58692;43.212;27.908;2022-10-29T05:41:22;10.48;90.29
71039;SHT30;58692;43.212;27.908;2022-10-29T05:43:48;10.42;90.51
71039;SHT30;58692;43.212;27.908;2022-10-29T05:46:14;10.57;90.31
71039;SHT30;58692;43.212;27.908;2022-10-29T05:48:41;10.60;90.42
71039;SHT30;58692;43.212;27.908;2022-10-29T05:51:06;10.76;90.21
71039;SHT30;58692;43.212;27.908;2022-10-29T05:53:32;10.80;89.62
71039;SHT30;58692;43.212;27.908;2022-10-29T05:55:58;10.87;89.40
71039;SHT30;58692;43.212;27.908;2022-10-29T05:58:23;10.83;89.23
71039;SHT30;58692;43.212;27.908;2022-10-29T06:00:49;10.96;89.06
71039;SHT30;58692;43.212;27.908;2022-10-29T06:03:17;10.89;88.80
71039;SHT30;58692;43.212;27.908;2022-10-29T06:05:45;10.79;89.29
71039;SHT30;58692;43.212;27.908;2022-10-29T06:08:11;10.97;88.82
71039;SHT30;58692;43.212;27.908;2022-10-29T06:10:36;11.03;88.14
71039;SHT30;58692;43.212;27.908;2022-10-29T06:13:09;11.16;88.02
71039;SHT30;58692;43.212;27.908;2022-10-29T06:15:35;11.23;87.62
71039;SHT30;58692;43.212;27.908;2022-10-29T06:18:00;11.20;87.48
71039;SHT30;58692;43.212;27.908;2022-10-29T06:20:26;11.23;87.51
71039;SHT30;58692;43.212;27.908;2022-10-29T06:22:55;11.17;87.57
71039;SHT30;58692;43.212;27.908;2022-10-29T06:25:22;11.17;87.61
71039;SHT30;58692;43.212;27.908;2022-10-29T06:27:56;11.18;87.55
71039;SHT30;58692;43.212;27.908;2022-10-29T06:30:22;11.21;87.52
71039;SHT30;58692;43.212;27.908;2022-10-29T06:32:47;11.24;87.32
71039;SHT30;58692;43.212;27.908;2022-10-29T06:35:13;11.34;86.98
71039;SHT30;58692;43.212;27.908;2022-10-29T06:37:38;11.32;86.93
71039;SHT30;58692;43.212;27.908;2022-10-29T06:40:04;11.24;87.25
71039;SHT30;58692;43.212;27.908;2022-10-29T06:42:30;11.26;86.99
71039;SHT30;58692;43.212;27.908;2022-10-29T06:44:55;11.27;86.77
71039;SHT30;58692;43.212;27.908;2022-10-29T06:47:21;11.26;86.83
71039;SHT30;58692;43.212;27.908;2022-10-29T06:49:46;11.23;86.58
71039;SHT30;58692;43.212;27.908;2022-10-29T06:52:12;11.28;86.52
71039;SHT30;58692;43.212;27.908;2022-10-29T06:54:37;11.48;85.94
71039;SHT30;58692;43.212;27.908;2022-10-29T06:57:03;11.62;85.65
71039;SHT30;58692;43.212;27.908;2022-10-29T06:59:28;11.65;85.20
71039;SHT30;58692;43.212;27.908;2022-10-29T07:01:53;11.81;84.88
71039;SHT30;58692;43.212;27.908;2022-10-29T07:04:19;12.00;84.27
71039;SHT30;58692;43.212;27.908;2022-10-29T07:06:45;12.02;84.12
71039;SHT30;58692;43.212;27.908;2022-10-29T07:09:11;12.12;83.80
71039;SHT30;58692;43.212;27.908;2022-10-29T07:11:36;12.19;83.61
71039;SHT30;58692;43.212;27.908;2022-10-29T07:14:02;12.36;83.03
71039;SHT30;58692;43.212;27.908;2022-10-29T07:16:30;12.41;83.11
71039;SHT30;58692;43.212;27.908;2022-10-29T07:18:55;12.61;82.45
71039;SHT30;58692;43.212;27.908;2022-10-29T07:21:21;12.88;81.39
71039;SHT30;58692;43.212;27.908;2022-10-29T07:23:47;13.07;80.94
71039;SHT30;58692;43.212;27.908;2022-10-29T07:26:12;12.97;81.20
71039;SHT30;58692;43.212;27.908;2022-10-29T07:28:38;12.87;81.50
71039;SHT30;58692;43.212;27.908;2022-10-29T07:31:04;13.04;81.19
71039;SHT30;58692;43.212;27.908;2022-10-29T07:33:29;13.21;80.69
71039;SHT30;58692;43.212;27.908;2022-10-29T07:35:56;13.79;78.75
71039;SHT30;58692;43.212;27.908;2022-10-29T07:38:23;14.02;78.06
71039;SHT30;58692;43.212;27.908;2022-10-29T07:40:49;14.23;77.35
71039;SHT30;58692;43.212;27.908;2022-10-29T07:43:16;14.23;77.13
71039;SHT30;58692;43.212;27.908;2022-10-29T07:45:43;14.05;77.57
71039;SHT30;58692;43.212;27.908;2022-10-29T07:48:09;13.86;77.81
71039;SHT30;58692;43.212;27.908;2022-10-29T07:50:36;13.93;78.05
71039;SHT30;58692;43.212;27.908;2022-10-29T07:53:03;14.06;78.03
71039;SHT30;58692;43.212;27.908;2022-10-29T07:55:29;14.56;76.60
71039;SHT30;58692;43.212;27.908;2022-10-29T07:57:56;14.71;76.07
71039;SHT30;58692;43.212;27.908;2022-10-29T08:00:24;14.72;76.11
71039;SHT30;58692;43.212;27.908;2022-10-29T08:02:52;15.38;74.29
71039;SHT30;58692;43.212;27.908;2022-10-29T08:05:17;16.04;72.19
71039;SHT30;58692;43.212;27.908;2022-10-29T08:07:43;16.22;71.38
71039;SHT30;58692;43.212;27.908;2022-10-29T08:10:08;16.24;71.23
71039;SHT30;58692;43.212;27.908;2022-10-29T08:12:34;16.18;71.45
71039;SHT30;58692;43.212;27.908;2022-10-29T08:15:00;16.22;71.67
71039;SHT30;58692;43.212;27.908;2022-10-29T08:17:28;16.65;70.15
71039;SHT30;58692;43.212;27.908;2022-10-29T08:19:53;17.31;68.07
71039;SHT30;58692;43.212;27.908;2022-10-29T08:22:19;17.67;66.76
71039;SHT30;58692;43.212;27.908;2022-10-29T08:24:44;17.60;66.99
71039;SHT30;58692;43.212;27.908;2022-10-29T08:27:10;17.49;66.94
71039;SHT30;58692;43.212;27.908;2022-10-29T08:29:36;18.21;66.14
71039;SHT30;58692;43.212;27.908;2022-10-29T08:32:01;18.25;65.64
71039;SHT30;58692;43.212;27.908;2022-10-29T08:34:27;18.24;65.48
71039;SHT30;58692;43.212;27.908;2022-10-29T08:36:52;18.13;66.05
71039;SHT30;58692;43.212;27.908;2022-10-29T08:39:18;18.92;64.08
71039;SHT30;58692;43.212;27.908;2022-10-29T08:44:27;19.65;61.82
71039;SHT30;58692;43.212;27.908;2022-10-29T08:47:03;19.72;61.54
71039;SHT30;58692;43.212;27.908;2022-10-29T08:49:36;19.55;61.76
71039;SHT30;58692;43.212;27.908;2022-10-29T08:52:10;19.78;61.28
71039;SHT30;58692;43.212;27.908;2022-10-29T08:54:40;20.12;60.94
71039;SHT30;58692;43.212;27.908;2022-10-29T08:57:13;20.83;59.19
71039;SHT30;58692;43.212;27.908;2022-10-29T08:59:57;20.81;58.67
71039;SHT30;58692;43.212;27.908;2022-10-29T09:02:23;21.48;57.75
71039;SHT30;58692;43.212;27.908;2022-10-29T09:04:49;21.10;58.45
71039;SHT30;58692;43.212;27.908;2022-10-29T09:10:13;22.35;55.29
71039;SHT30;58692;43.212;27.908;2022-10-29T09:21:11;22.91;53.70
71039;SHT30;58692;43.212;27.908;2022-10-29T09:26:32;23.21;53.75
71039;SHT30;58692;43.212;27.908;2022-10-29T09:29:23;23.80;52.67
71039;SHT30;58692;43.212;27.908;2022-10-29T09:31:49;24.06;51.89
71039;SHT30;58692;43.212;27.908;2022-10-29T09:34:21;24.14;51.57
71039;SHT30;58692;43.212;27.908;2022-10-29T09:36:49;23.97;51.45
71039;SHT30;58692;43.212;27.908;2022-10-29T09:39:23;23.41;53.11
71039;SHT30;58692;43.212;27.908;2022-10-29T09:41:52;23.33;53.33
71039;SHT30;58692;43.212;27.908;2022-10-29T09:52:22;22.41;56.30
71039;SHT30;58692;43.212;27.908;2022-10-29T09:54:50;21.54;57.64
71039;SHT30;58692;43.212;27.908;2022-10-29T09:57:20;21.72;57.32
71039;SHT30;58692;43.212;27.908;2022-10-29T09:59:50;21.83;57.64
71039;SHT30;58692;43.212;27.908;2022-10-29T10:02:30;22.17;56.44
71039;SHT30;58692;43.212;27.908;2022-10-29T10:05:03;22.53;55.36
71039;SHT30;58692;43.212;27.908;2022-10-29T10:07:29;22.80;54.87
71039;SHT30;58692;43.212;27.908;2022-10-29T10:09:55;22.43;55.81
71039;SHT30;58692;43.212;27.908;2022-10-29T10:12:24;22.35;55.98
71039;SHT30;58692;43.212;27.908;2022-10-29T10:17:59;22.64;55.42
71039;SHT30;58692;43.212;27.908;2022-10-29T10:23:27;22.07;56.62
71039;SHT30;58692;43.212;27.908;2022-10-29T10:25:55;22.12;56.99
71039;SHT30;58692;43.212;27.908;2022-10-29T10:28:26;21.63;58.80
71039;SHT30;58692;43.212;27.908;2022-10-29T10:31:11;21.74;58.67
71039;SHT30;58692;43.212;27.908;2022-10-29T10:33:51;21.82;58.61
71039;SHT30;58692;43.212;27.908;2022-10-29T10:36:24;21.76;59.27
71039;SHT30;58692;43.212;27.908;2022-10-29T10:38:52;21.14;60.35
71039;SHT30;58692;43.212;27.908;2022-10-29T10:41:26;21.30;60.65
71039;SHT30;58692;43.212;27.908;2022-10-29T10:43:54;21.61;59.13
71039;SHT30;58692;43.212;27.908;2022-10-29T10:46:25;21.82;58.92
71039;SHT30;58692;43.212;27.908;2022-10-29T10:51:31;21.39;58.72
71039;SHT30;58692;43.212;27.908;2022-10-29T10:53:58;20.83;60.86
71039;SHT30;58692;43.212;27.908;2022-10-29T10:56:25;21.04;60.72
71039;SHT30;58692;43.212;27.908;2022-10-29T11:01:37;20.93;61.18
71039;SHT30;58692;43.212;27.908;2022-10-29T11:04:18;20.93;61.58
71039;SHT30;58692;43.212;27.908;2022-10-29T11:06:48;20.44;60.76
71039;SHT30;58692;43.212;27.908;2022-10-29T11:12:05;20.69;61.76
71039;SHT30;58692;43.212;27.908;2022-10-29T11:14:34;20.59;61.57
71039;SHT30;58692;43.212;27.908;2022-10-29T11:17:01;20.93;61.13
71039;SHT30;58692;43.212;27.908;2022-10-29T11:19:44;20.85;59.77
71039;SHT30;58692;43.212;27.908;2022-10-29T11:25:25;21.35;60.27
71039;SHT30;58692;43.212;27.908;2022-10-29T11:30:20;21.00;59.74
71039;SHT30;58692;43.212;27.908;2022-10-29T11:38:29;21.28;58.56
71039;SHT30;58692;43.212;27.908;2022-10-29T11:43:42;20.97;57.80
71039;SHT30;58692;43.212;27.908;2022-10-29T11:49:05;20.41;60.28
71039;SHT30;58692;43.212;27.908;2022-10-29T11:54:05;20.60;59.59
71039;SHT30;58692;43.212;27.908;2022-10-29T11:59:26;21.03;58.77
71039;SHT30;58692;43.212;27.908;2022-10-29T12:01:56;20.32;60.04
71039;SHT30;58692;43.212;27.908;2022-10-29T12:12:55;20.84;58.90
71039;SHT30;58692;43.212;27.908;2022-10-29T12:15:31;20.57;58.94
71039;SHT30;58692;43.212;27.908;2022-10-29T12:18:05;21.18;58.10
71039;SHT30;58692;43.212;27.908;2022-10-29T12:20:40;20.53;60.12
71039;SHT30;58692;43.212;27.908;2022-10-29T12:31:15;21.32;58.65
71039;SHT30;58692;43.212;27.908;2022-10-29T12:36:19;20.00;62.54
71039;SHT30;58692;43.212;27.908;2022-10-29T12:38:51;19.67;63.39
71039;SHT30;58692;43.212;27.908;2022-10-29T12:41:28;19.54;63.71
71039;SHT30;58692;43.212;27.908;2022-10-29T12:44:06;19.92;62.40
71039;SHT30;58692;43.212;27.908;2022-10-29T12:46:37;19.39;63.27
71039;SHT30;58692;43.212;27.908;2022-10-29T12:51:41;18.72;65.56
71039;SHT30;58692;43.212;27.908;2022-10-29T12:57:03;18.48;66.76
71039;SHT30;58692;43.212;27.908;2022-10-29T12:59:30;17.92;68.37
71039;SHT30;58692;43.212;27.908;2022-10-29T13:05:13;17.54;70.47
71039;SHT30;58692;43.212;27.908;2022-10-29T13:08:07;17.31;71.27
71039;SHT30;58692;43.212;27.908;2022-10-29T13:13:18;16.98;72.68
71039;SHT30;58692;43.212;27.908;2022-10-29T13:15:48;16.79;73.05
71039;SHT30;58692;43.212;27.908;2022-10-29T13:21:10;16.89;73.15
71039;SHT30;58692;43.212;27.908;2022-10-29T13:23:36;16.85;73.51
71039;SHT30;58692;43.212;27.908;2022-10-29T13:26:03;17.03;73.12
71039;SHT30;58692;43.212;27.908;2022-10-29T13:41:21;16.72;74.26
71039;SHT30;58692;43.212;27.908;2022-10-29T13:43:59;16.75;74.96
71039;SHT30;58692;43.212;27.908;2022-10-29T13:46:51;16.71;75.32
71039;SHT30;58692;43.212;27.908;2022-10-29T13:54:31;16.76;74.97
71039;SHT30;58692;43.212;27.908;2022-10-29T13:57:06;16.69;75.46
71039;SHT30;58692;43.212;27.908;2022-10-29T13:59:40;16.72;75.68
71039;SHT30;58692;43.212;27.908;2022-10-29T14:04:49;16.69;75.57
71039;SHT30;58692;43.212;27.908;2022-10-29T14:07:20;16.76;75.51
71039;SHT30;58692;43.212;27.908;2022-10-29T14:09:51;16.61;76.02
71039;SHT30;58692;43.212;27.908;2022-10-29T14:12:22;16.61;75.91
71039;SHT30;58692;43.212;27.908;2022-10-29T14:17:19;16.54;76.68
71039;SHT30;58692;43.212;27.908;2022-10-29T14:19:46;16.55;76.64
71039;SHT30;58692;43.212;27.908;2022-10-29T14:24:55;16.51;76.98
71039;SHT30;58692;43.212;27.908;2022-10-29T14:27:20;16.55;76.81
71039;SHT30;58692;43.212;27.908;2022-10-29T14:29:46;16.42;77.38
71039;SHT30;58692;43.212;27.908;2022-10-29T14:32:15;16.35;77.65
71039;SHT30;58692;43.212;27.908;2022-10-29T14:34:42;16.32;77.91
71039;SHT30;58692;43.212;27.908;2022-10-29T14:37:16;16.31;77.92
71039;SHT30;58692;43.212;27.908;2022-10-29T14:39:46;16.31;78.08
71039;SHT30;58692;43.212;27.908;2022-10-29T14:42:17;16.21;78.47
71039;SHT30;58692;43.212;27.908;2022-10-29T14:44:48;16.25;78.61
71039;SHT30;58692;43.212;27.908;2022-10-29T14:47:23;16.25;78.82
71039;SHT30;58692;43.212;27.908;2022-10-29T14:49:50;16.25;78.95
71039;SHT30;58692;43.212;27.908;2022-10-29T14:55:04;16.15;79.34
71039;SHT30;58692;43.212;27.908;2022-10-29T14:57:32;16.17;79.24
71039;SHT30;58692;43.212;27.908;2022-10-29T15:00:02;16.15;79.37
71039;SHT30;58692;43.212;27.908;2022-10-29T15:02:35;16.18;79.32
71039;SHT30;58692;43.212;27.908;2022-10-29T15:05:01;16.22;79.33
71039;SHT30;58692;43.212;27.908;2022-10-29T15:07:30;16.25;79.19
71039;SHT30;58692;43.212;27.908;2022-10-29T15:10:20;16.14;79.41
71039;SHT30;58692;43.212;27.908;2022-10-29T15:12:48;16.14;79.72
71039;SHT30;58692;43.212;27.908;2022-10-29T15:15:23;15.94;80.19
71039;SHT30;58692;43.212;27.908;2022-10-29T15:20:21;16.07;79.71
71039;SHT30;58692;43.212;27.908;2022-10-29T15:22:51;16.10;79.64
71039;SHT30;58692;43.212;27.908;2022-10-29T15:25:22;16.08;79.71
71039;SHT30;58692;43.212;27.908;2022-10-29T15:27:50;16.08;79.61
71039;SHT30;58692;43.212;27.908;2022-10-29T15:30:19;16.04;79.66
71039;SHT30;58692;43.212;27.908;2022-10-29T15:32:45;16.00;79.76
71039;SHT30;58692;43.212;27.908;2022-10-29T15:35:18;15.96;80.02
71039;SHT30;58692;43.212;27.908;2022-10-29T15:37:44;15.98;79.93
71039;SHT30;58692;43.212;27.908;2022-10-29T15:40:14;16.07;79.66
71039;SHT30;58692;43.212;27.908;2022-10-29T15:42:41;16.00;79.92
71039;SHT30;58692;43.212;27.908;2022-10-29T15:47:35;15.90;80.36
71039;SHT30;58692;43.212;27.908;2022-10-29T15:50:01;15.90;80.31
71039;SHT30;58692;43.212;27.908;2022-10-29T15:52:31;15.94;80.34
71039;SHT30;58692;43.212;27.908;2022-10-29T15:55:03;15.90;80.44
71039;SHT30;58692;43.212;27.908;2022-10-29T15:57:29;15.91;80.49
71039;SHT30;58692;43.212;27.908;2022-10-29T15:59:56;15.90;80.50
71039;SHT30;58692;43.212;27.908;2022-10-29T16:02:23;15.82;80.67
71039;SHT30;58692;43.212;27.908;2022-10-29T16:04:49;15.87;80.37
71039;SHT30;58692;43.212;27.908;2022-10-29T16:07:15;15.91;80.32
71039;SHT30;58692;43.212;27.908;2022-10-29T16:09:45;15.90;80.33
71039;SHT30;58692;43.212;27.908;2022-10-29T16:12:12;15.87;80.19
71039;SHT30;58692;43.212;27.908;2022-10-29T16:14:38;15.79;80.63
71039;SHT30;58692;43.212;27.908;2022-10-29T16:17:12;15.90;80.40
71039;SHT30;58692;43.212;27.908;2022-10-29T16:19:38;15.90;80.14
71039;SHT30;58692;43.212;27.908;2022-10-29T16:22:04;15.80;80.64
71039;SHT30;58692;43.212;27.908;2022-10-29T16:24:30;15.82;80.49
71039;SHT30;58692;43.212;27.908;2022-10-29T16:26:55;15.74;80.72
71039;SHT30;58692;43.212;27.908;2022-10-29T16:29:21;15.87;80.04
71039;SHT30;58692;43.212;27.908;2022-10-29T16:31:46;15.97;79.76
71039;SHT30;58692;43.212;27.908;2022-10-29T16:34:12;15.89;80.14
71039;SHT30;58692;43.212;27.908;2022-10-29T16:36:38;15.96;79.80
71039;SHT30;58692;43.212;27.908;2022-10-29T16:39:04;15.89;80.16
71039;SHT30;58692;43.212;27.908;2022-10-29T16:41:32;15.83;80.42
71039;SHT30;58692;43.212;27.908;2022-10-29T16:43:57;15.90;80.23
71039;SHT30;58692;43.212;27.908;2022-10-29T16:46:23;15.94;79.98
71039;SHT30;58692;43.212;27.908;2022-10-29T16:48:48;15.98;79.94
71039;SHT30;58692;43.212;27.908;2022-10-29T16:51:14;16.04;79.68
71039;SHT30;58692;43.212;27.908;2022-10-29T16:53:39;16.08;79.47
71039;SHT30;58692;43.212;27.908;2022-10-29T16:56:05;16.13;79.19
71039;SHT30;58692;43.212;27.908;2022-10-29T16:58:31;15.97;79.51
71039;SHT30;58692;43.212;27.908;2022-10-29T17:01:05;15.82;79.97
71039;SHT30;58692;43.212;27.908;2022-10-29T17:03:31;15.76;80.00
71039;SHT30;58692;43.212;27.908;2022-10-29T17:06:02;15.76;80.18
71039;SHT30;58692;43.212;27.908;2022-10-29T17:08:32;15.89;79.68
71039;SHT30;58692;43.212;27.908;2022-10-29T17:10:59;15.90;79.42
71039;SHT30;58692;43.212;27.908;2022-10-29T17:13:25;15.90;79.34
71039;SHT30;58692;43.212;27.908;2022-10-29T17:15:50;15.97;79.15
71039;SHT30;58692;43.212;27.908;2022-10-29T17:18:16;15.94;79.28
71039;SHT30;58692;43.212;27.908;2022-10-29T17:20:41;15.93;79.19
71039;SHT30;58692;43.212;27.908;2022-10-29T17:23:07;15.94;79.14
71039;SHT30;58692;43.212;27.908;2022-10-29T17:25:32;15.98;78.83
71039;SHT30;58692;43.212;27.908;2022-10-29T17:27:57;16.01;78.73
71039;SHT30;58692;43.212;27.908;2022-10-29T17:30:23;16.04;78.40
71039;SHT30;58692;43.212;27.908;2022-10-29T17:32:48;16.03;78.39
71039;SHT30;58692;43.212;27.908;2022-10-29T17:35:14;16.04;78.35
71039;SHT30;58692;43.212;27.908;2022-10-29T17:37:39;16.03;78.34
71039;SHT30;58692;43.212;27.908;2022-10-29T17:40:05;15.96;78.45
71039;SHT30;58692;43.212;27.908;2022-10-29T17:42:31;15.93;78.72
71039;SHT30;58692;43.212;27.908;2022-10-29T17:44:56;15.89;78.98
71039;SHT30;58692;43.212;27.908;2022-10-29T17:47:22;15.83;78.89
71039;SHT30;58692;43.212;27.908;2022-10-29T17:49:47;15.83;79.02
71039;SHT30;58692;43.212;27.908;2022-10-29T17:52:12;15.83;78.97
71039;SHT30;58692;43.212;27.908;2022-10-29T17:54:38;15.79;79.06
71039;SHT30;58692;43.212;27.908;2022-10-29T17:57:03;15.73;79.23
71039;SHT30;58692;43.212;27.908;2022-10-29T17:59:29;15.73;79.37